Time;durP1;ratioP1;P1;durP2;ratioP2;P2;SDS_P1;SDS_P2;PMS_P1;PMS_P2;Temp;Humidity;BMP_temperature;BMP_pressure;BME280_temperature;BME280_humidity;BME280_pressure;Samples;Min_cycle;Max_cycle;Signal;HPM_P1;HPM_P2
2024/04/10 00:00:52;;;;;;;2.63;0.88;;;;;;;;;;5446793;26;20010;-72
2024/04/10 00:03:18;;;;;;;2.28;0.55;;;;;;;;;;5447771;26;20014;-72
2024/04/10 00:05:44;;;;;;;1.45;0.70;;;;;;;;;;5447146;26;19999;-69
2024/04/10 00:08:10;;;;;;;0.90;0.90;;;;;;;;;;5449226;26;19999;-70
2024/04/10 00:10:36;;;;;;;11.00;1.15;;;;;;;;;;5448837;26;20010;-71
2024/04/10 00:13:02;;;;;;;0.85;0.55;;;;;;;;;;5447381;26;20009;-72
2024/04/10 00:15:28;;;;;;;3.63;1.08;;;;;;;;;;5445880;26;20003;-70
2024/04/10 00:17:53;;;;;;;2.35;0.85;;;;;;;;;;5447674;26;20039;-71
2024/04/10 00:20:19;;;;;;;0.82;0.82;;;;;;;;;;5446715;26;20852;-72
2024/04/10 00:22:45;;;;;;;1.70;0.80;;;;;;;;;;5445122;26;19999;-70
2024/04/10 00:25:10;;;;;;;2.85;0.98;;;;;;;;;;5446613;26;19998;-72
2024/04/10 00:27:36;;;;;;;2.17;0.90;;;;;;;;;;5447622;26;20002;-71
2024/04/10 00:30:02;;;;;;;2.35;1.40;;;;;;;;;;5446802;26;20010;-73
2024/04/10 00:32:27;;;;;;;4.70;1.30;;;;;;;;;;5445577;26;20429;-71
2024/04/10 00:34:53;;;;;;;2.35;1.10;;;;;;;;;;5448873;26;20003;-72
2024/04/10 00:37:19;;;;;;;1.83;1.27;;;;;;;;;;5448454;26;19991;-71
2024/04/10 00:39:46;;;;;;;2.78;1.40;;;;;;;;;;5448477;26;19995;-71
2024/04/10 00:42:11;;;;;;;2.63;1.33;;;;;;;;;;5450330;26;19999;-72
2024/04/10 00:44:45;;;;;;;1.60;1.20;;;;;;;;;;5448620;26;20006;-72
2024/04/10 00:47:11;;;;;;;4.68;1.50;;;;;;;;;;5448701;26;20731;-71
2024/04/10 00:49:37;;;;;;;3.53;1.45;;;;;;;;;;5414839;26;19995;-71
2024/04/10 00:52:03;;;;;;;2.63;1.40;;;;;;;;;;5442525;26;19995;-71
2024/04/10 00:54:28;;;;;;;2.33;1.40;;;;;;;;;;5419411;26;20013;-70
2024/04/10 00:56:54;;;;;;;1.20;1.10;;;;;;;;;;5418705;26;20431;-71
2024/04/10 00:59:20;;;;;;;3.10;1.25;;;;;;;;;;5418220;26;20431;-71
2024/04/10 01:01:45;;;;;;;3.67;1.13;;;;;;;;;;5418255;26;19995;-71
2024/04/10 01:04:11;;;;;;;1.85;1.20;;;;;;;;;;5418349;26;19998;-70
2024/04/10 01:06:36;;;;;;;1.95;1.40;;;;;;;;;;5418628;26;20006;-72
2024/04/10 01:09:02;;;;;;;2.25;1.50;;;;;;;;;;5418532;26;20010;-71
2024/04/10 01:11:28;;;;;;;2.15;1.20;;;;;;;;;;5418385;26;20013;-71
2024/04/10 01:13:54;;;;;;;2.08;1.38;;;;;;;;;;5418456;26;20007;-73
2024/04/10 01:16:19;;;;;;;2.45;1.23;;;;;;;;;;5449818;26;20091;-70
2024/04/10 01:18:45;;;;;;;2.35;1.58;;;;;;;;;;5418293;26;20009;-73
2024/04/10 01:21:11;;;;;;;4.50;1.23;;;;;;;;;;5418286;26;20002;-70
2024/04/10 01:23:36;;;;;;;2.45;1.38;;;;;;;;;;5450704;26;20052;-71
2024/04/10 01:26:02;;;;;;;2.65;1.27;;;;;;;;;;5450685;26;20007;-71
2024/04/10 01:28:28;;;;;;;2.95;1.50;;;;;;;;;;5418598;26;20006;-70
2024/04/10 01:30:54;;;;;;;1.67;1.30;;;;;;;;;;5451356;26;19999;-72
2024/04/10 01:33:19;;;;;;;1.45;1.02;;;;;;;;;;5450506;26;19999;-71
2024/04/10 01:35:45;;;;;;;1.10;1.00;;;;;;;;;;5426275;26;20023;-71
2024/04/10 01:38:10;;;;;;;3.78;1.20;;;;;;;;;;5462628;26;20023;-71
2024/04/10 01:40:36;;;;;;;2.13;1.15;;;;;;;;;;5427804;26;20038;-71
2024/04/10 01:43:02;;;;;;;2.17;1.20;;;;;;;;;;5418335;26;20026;-70
2024/04/10 01:45:27;;;;;;;1.50;1.08;;;;;;;;;;5417921;26;20013;-71
2024/04/10 01:47:53;;;;;;;2.65;1.15;;;;;;;;;;5461163;26;20066;-70
2024/04/10 01:50:19;;;;;;;1.05;1.00;;;;;;;;;;5454739;26;20070;-72
2024/04/10 01:52:46;;;;;;;2.80;1.00;;;;;;;;;;5455668;26;20076;-70
2024/04/10 01:55:11;;;;;;;1.13;0.90;;;;;;;;;;5487898;26;19998;-71
2024/04/10 01:57:37;;;;;;;3.08;1.17;;;;;;;;;;5454896;26;19994;-71
2024/04/10 02:00:02;;;;;;;1.25;0.88;;;;;;;;;;5486557;26;20036;-70
2024/04/10 02:02:29;;;;;;;0.85;0.75;;;;;;;;;;5486622;26;20070;-71
2024/04/10 02:04:55;;;;;;;1.92;0.90;;;;;;;;;;5486844;26;19990;-70
2024/04/10 02:07:21;;;;;;;1.52;0.65;;;;;;;;;;5454409;26;21032;-71
2024/04/10 02:09:46;;;;;;;2.40;0.73;;;;;;;;;;5454074;26;20005;-71
2024/04/10 02:12:12;;;;;;;2.38;0.98;;;;;;;;;;5486407;26;20349;-72
2024/04/10 02:14:37;;;;;;;2.10;0.73;;;;;;;;;;5454689;26;20026;-71
2024/04/10 02:17:04;;;;;;;2.30;0.82;;;;;;;;;;5454415;26;20133;-71
2024/04/10 02:19:29;;;;;;;3.13;0.70;;;;;;;;;;5456898;26;20018;-70
2024/04/10 02:21:55;;;;;;;3.97;0.60;;;;;;;;;;5456972;26;20499;-72
2024/04/10 02:24:21;;;;;;;1.95;0.90;;;;;;;;;;5456533;26;20012;-72
2024/04/10 02:26:47;;;;;;;2.83;0.60;;;;;;;;;;5457137;26;20022;-73
2024/04/10 02:29:13;;;;;;;4.75;0.90;;;;;;;;;;5492438;26;20070;-71
2024/04/10 02:31:39;;;;;;;1.95;0.70;;;;;;;;;;5489828;26;20012;-74
2024/04/10 02:34:05;;;;;;;1.70;0.60;;;;;;;;;;5458104;26;19994;-71
2024/04/10 02:36:30;;;;;;;1.70;0.60;;;;;;;;;;5456459;26;19998;-70
2024/04/10 02:38:56;;;;;;;1.98;0.70;;;;;;;;;;5488258;26;20009;-70
2024/04/10 02:41:22;;;;;;;1.65;0.60;;;;;;;;;;5453146;26;19998;-72
2024/04/10 02:43:47;;;;;;;1.85;0.63;;;;;;;;;;5453186;26;20352;-71
2024/04/10 02:46:16;;;;;;;0.60;0.60;;;;;;;;;;5452542;26;20423;-72
2024/04/10 02:48:43;;;;;;;1.38;0.60;;;;;;;;;;5430281;26;20319;-71
2024/04/10 02:51:09;;;;;;;1.63;0.65;;;;;;;;;;5416754;26;20038;-70
2024/04/10 02:53:34;;;;;;;3.53;0.90;;;;;;;;;;5417188;26;19999;-71
2024/04/10 02:56:00;;;;;;;1.20;0.57;;;;;;;;;;5447950;26;20010;-71
2024/04/10 02:58:25;;;;;;;2.53;0.90;;;;;;;;;;5448507;26;20494;-72
2024/04/10 03:00:54;;;;;;;1.17;0.70;;;;;;;;;;5417038;26;20083;-72
2024/04/10 03:03:21;;;;;;;4.65;1.08;;;;;;;;;;5448921;26;20212;-69
2024/04/10 03:05:58;;;;;;;3.00;0.93;;;;;;;;;;5417747;26;20056;-71
2024/04/10 03:08:24;;;;;;;0.93;0.65;;;;;;;;;;5417015;26;20326;-73
2024/04/10 03:10:49;;;;;;;0.70;0.70;;;;;;;;;;5416230;26;20055;-72
2024/04/10 03:13:15;;;;;;;5.10;0.90;;;;;;;;;;5415942;26;20015;-73
2024/04/10 03:15:44;;;;;;;0.70;0.63;;;;;;;;;;5416211;26;20009;-71
2024/04/10 03:18:10;;;;;;;0.80;0.73;;;;;;;;;;5416184;26;20084;-72
2024/04/10 03:20:36;;;;;;;2.15;0.43;;;;;;;;;;5447976;26;20010;-72
2024/04/10 03:23:03;;;;;;;3.47;0.68;;;;;;;;;;5416101;26;20053;-68
2024/04/10 03:25:29;;;;;;;0.85;0.65;;;;;;;;;;5447702;26;20010;-68
2024/04/10 03:27:56;;;;;;;1.55;0.60;;;;;;;;;;5416418;26;20013;-67
2024/04/10 03:30:22;;;;;;;3.08;0.50;;;;;;;;;;5415923;26;20013;-68
2024/04/10 03:32:48;;;;;;;2.00;0.70;;;;;;;;;;5447680;26;20013;-67
2024/04/10 03:35:14;;;;;;;1.92;0.57;;;;;;;;;;5415472;26;19995;-68
2024/04/10 03:37:40;;;;;;;0.70;0.50;;;;;;;;;;5415711;26;20010;-68
2024/04/10 03:40:06;;;;;;;0.30;0.30;;;;;;;;;;5415720;26;20075;-67
2024/04/10 03:42:35;;;;;;;1.17;0.35;;;;;;;;;;5415845;26;20010;-68
2024/04/10 03:45:02;;;;;;;0.85;0.50;;;;;;;;;;5447514;26;19999;-68
2024/04/10 03:47:27;;;;;;;0.38;0.38;;;;;;;;;;5419050;26;20014;-69
2024/04/10 03:49:53;;;;;;;0.95;0.40;;;;;;;;;;5483988;26;20010;-68
2024/04/10 03:52:18;;;;;;;0.70;0.38;;;;;;;;;;5445646;26;20460;-68
2024/04/10 03:54:44;;;;;;;1.17;0.40;;;;;;;;;;5445824;26;20003;-68
2024/04/10 03:57:10;;;;;;;0.68;0.40;;;;;;;;;;5445237;26;20003;-68
2024/04/10 03:59:36;;;;;;;1.20;0.60;;;;;;;;;;5447258;26;20007;-68
2024/04/10 04:02:01;;;;;;;0.40;0.40;;;;;;;;;;5445564;26;20007;-67
2024/04/10 04:04:27;;;;;;;0.65;0.40;;;;;;;;;;5445638;26;20088;-68
2024/04/10 04:06:53;;;;;;;0.20;0.20;;;;;;;;;;5445848;26;20014;-68
2024/04/10 04:09:19;;;;;;;1.33;0.50;;;;;;;;;;5448529;26;20041;-69
2024/04/10 04:11:44;;;;;;;1.35;0.25;;;;;;;;;;5449192;26;19995;-69
2024/04/10 04:14:10;;;;;;;0.50;0.40;;;;;;;;;;5450837;26;19999;-68
2024/04/10 04:16:35;;;;;;;0.52;0.40;;;;;;;;;;5449327;26;20014;-67
2024/04/10 04:19:01;;;;;;;0.30;0.30;;;;;;;;;;5450125;26;20031;-69
2024/04/10 04:21:27;;;;;;;0.85;0.50;;;;;;;;;;5453941;26;20013;-67
2024/04/10 04:23:53;;;;;;;1.45;0.63;;;;;;;;;;5452572;26;20039;-67
2024/04/10 04:26:19;;;;;;;1.02;0.55;;;;;;;;;;5452521;26;19999;-67
2024/04/10 04:28:46;;;;;;;0.55;0.50;;;;;;;;;;5455183;26;20600;-68
2024/04/10 04:31:14;;;;;;;1.88;0.75;;;;;;;;;;5451957;26;20002;-68
2024/04/10 04:33:40;;;;;;;3.13;0.52;;;;;;;;;;5451289;26;20013;-68
2024/04/10 04:36:07;;;;;;;3.75;1.35;;;;;;;;;;5418939;26;20153;-69
2024/04/10 04:38:33;;;;;;;1.40;0.60;;;;;;;;;;5450276;26;20035;-67
2024/04/10 04:40:59;;;;;;;2.00;0.70;;;;;;;;;;5449490;26;20009;-68
2024/04/10 04:43:28;;;;;;;0.75;0.50;;;;;;;;;;5449332;26;20077;-68
2024/04/10 04:45:54;;;;;;;2.15;0.45;;;;;;;;;;5451055;26;19999;-68
2024/04/10 04:48:20;;;;;;;1.77;0.70;;;;;;;;;;5431657;26;20022;-68
2024/04/10 04:50:48;;;;;;;0.50;0.50;;;;;;;;;;5423484;26;20074;-67
2024/04/10 04:53:15;;;;;;;2.33;0.70;;;;;;;;;;5418720;26;20015;-68
2024/04/10 04:55:42;;;;;;;3.50;1.38;;;;;;;;;;5389628;26;19999;-68
2024/04/10 04:58:08;;;;;;;2.30;0.73;;;;;;;;;;5419704;26;20006;-68
2024/04/10 05:00:34;;;;;;;2.92;0.73;;;;;;;;;;5419093;26;20295;-69
2024/04/10 05:03:01;;;;;;;2.95;0.90;;;;;;;;;;5418569;26;20010;-68
2024/04/10 05:05:26;;;;;;;10.35;1.67;;;;;;;;;;5417465;26;20003;-68
2024/04/10 05:07:52;;;;;;;2.05;0.75;;;;;;;;;;5449999;26;19999;-69
2024/04/10 05:10:19;;;;;;;2.28;0.80;;;;;;;;;;5449636;26;20350;-67
2024/04/10 05:12:45;;;;;;;1.40;0.80;;;;;;;;;;5388657;26;19995;-69
2024/04/10 05:15:12;;;;;;;3.72;0.80;;;;;;;;;;5418107;26;20022;-69
2024/04/10 05:17:48;;;;;;;1.10;0.85;;;;;;;;;;5418456;26;19999;-71
2024/04/10 05:20:14;;;;;;;2.70;0.80;;;;;;;;;;5417145;26;20006;-69
2024/04/10 05:22:43;;;;;;;3.88;0.98;;;;;;;;;;5449845;26;20014;-69
2024/04/10 05:25:10;;;;;;;3.92;2.00;;;;;;;;;;5418092;26;20003;-68
2024/04/10 05:27:41;;;;;;;4.28;1.83;;;;;;;;;;5449571;26;20018;-69
2024/04/10 05:30:09;;;;;;;4.18;1.67;;;;;;;;;;5419054;26;20048;-66
2024/04/10 05:32:36;;;;;;;14.70;6.00;;;;;;;;;;5433670;26;20002;-69
2024/04/10 05:35:04;;;;;;;3.45;1.95;;;;;;;;;;5484567;26;20013;-68
2024/04/10 05:37:30;;;;;;;2.45;1.13;;;;;;;;;;5456424;26;20046;-68
2024/04/10 05:40:13;;;;;;;1.45;0.77;;;;;;;;;;5462543;26;19998;-68
2024/04/10 05:42:40;;;;;;;1.80;1.15;;;;;;;;;;5408413;26;20865;-70
2024/04/10 05:45:08;;;;;;;1.27;0.82;;;;;;;;;;5463067;26;20002;-69
2024/04/10 05:47:35;;;;;;;4.28;1.10;;;;;;;;;;5365406;26;19998;-70
2024/04/10 05:50:01;;;;;;;1.67;1.08;;;;;;;;;;5453491;26;20035;-69
2024/04/10 05:52:27;;;;;;;1.60;1.08;;;;;;;;;;5447647;26;20375;-68
2024/04/10 05:54:53;;;;;;;1.02;0.90;;;;;;;;;;5420998;26;20002;-68
2024/04/10 05:57:19;;;;;;;1.95;1.02;;;;;;;;;;5484972;26;20083;-70
2024/04/10 05:59:51;;;;;;;1.33;1.20;;;;;;;;;;5456902;26;20006;-68
2024/04/10 06:02:17;;;;;;;2.70;1.20;;;;;;;;;;5470743;26;20475;-68
2024/04/10 06:04:42;;;;;;;1.98;1.20;;;;;;;;;;5459843;26;20003;-67
2024/04/10 06:07:08;;;;;;;1.23;1.08;;;;;;;;;;5412147;26;20442;-69
2024/04/10 06:09:34;;;;;;;0.98;0.90;;;;;;;;;;5422666;26;19995;-68
2024/04/10 06:12:00;;;;;;;1.20;1.00;;;;;;;;;;5430013;26;20027;-69
2024/04/10 06:14:25;;;;;;;1.50;0.90;;;;;;;;;;5473752;26;20066;-71
2024/04/10 06:16:52;;;;;;;15.70;2.88;;;;;;;;;;5467247;26;19999;-69
2024/04/10 06:19:19;;;;;;;4.80;1.52;;;;;;;;;;5429493;26;20497;-70
2024/04/10 06:21:45;;;;;;;4.57;1.52;;;;;;;;;;5449435;26;20066;-69
2024/04/10 06:24:13;;;;;;;4.47;1.38;;;;;;;;;;5430934;26;20018;-71
2024/04/10 06:26:40;;;;;;;1.80;0.80;;;;;;;;;;5494811;26;20013;-69
2024/04/10 06:29:08;;;;;;;4.25;1.35;;;;;;;;;;5455358;26;20083;-68
2024/04/10 06:31:33;;;;;;;2.08;1.02;;;;;;;;;;5455391;26;20001;-69
2024/04/10 06:34:01;;;;;;;2.80;1.30;;;;;;;;;;5480369;26;20438;-69
2024/04/10 06:36:26;;;;;;;3.13;1.70;;;;;;;;;;5438638;26;20567;-69
2024/04/10 06:38:52;;;;;;;4.13;1.65;;;;;;;;;;5432193;26;19995;-69
2024/04/10 06:41:18;;;;;;;2.85;1.05;;;;;;;;;;5474170;26;19999;-70
2024/04/10 06:43:44;;;;;;;11.35;6.50;;;;;;;;;;5452783;26;20002;-68
2024/04/10 06:46:09;;;;;;;4.90;1.83;;;;;;;;;;5451789;26;20009;-70
2024/04/10 06:48:35;;;;;;;1.90;1.20;;;;;;;;;;5459583;26;19999;-68
2024/04/10 06:51:02;;;;;;;5.00;1.92;;;;;;;;;;5493109;26;20019;-69
2024/04/10 06:53:29;;;;;;;4.63;1.02;;;;;;;;;;5478779;26;20046;-70
2024/04/10 06:55:57;;;;;;;2.78;1.38;;;;;;;;;;5453802;26;20069;-72
2024/04/10 06:58:26;;;;;;;2.72;1.30;;;;;;;;;;5483144;26;20002;-69
2024/04/10 07:01:04;;;;;;;4.93;0.90;;;;;;;;;;5461339;26;19998;-71
2024/04/10 07:03:37;;;;;;;2.72;1.20;;;;;;;;;;5436183;26;19998;-68
2024/04/10 07:06:14;;;;;;;1.30;0.80;;;;;;;;;;5446030;26;20062;-69
2024/04/10 07:08:42;;;;;;;2.33;1.05;;;;;;;;;;5467464;26;20475;-70
2024/04/10 07:11:11;;;;;;;3.25;1.45;;;;;;;;;;5450406;26;20000;-69
2024/04/10 07:13:39;;;;;;;3.50;1.20;;;;;;;;;;5420807;26;20222;-70
2024/04/10 07:16:05;;;;;;;3.40;1.08;;;;;;;;;;5436907;26;20010;-69
2024/04/10 07:18:32;;;;;;;3.63;1.30;;;;;;;;;;5462533;26;19994;-68
2024/04/10 07:21:01;;;;;;;1.00;0.90;;;;;;;;;;5443101;26;20029;-69
2024/04/10 07:23:28;;;;;;;3.83;1.00;;;;;;;;;;5430789;26;20058;-67
2024/04/10 07:25:53;;;;;;;3.22;1.00;;;;;;;;;;5423349;26;20453;-70
2024/04/10 07:28:20;;;;;;;1.88;1.08;;;;;;;;;;5431316;26;20005;-71
2024/04/10 07:30:50;;;;;;;2.45;1.05;;;;;;;;;;5465252;26;20036;-72
2024/04/10 07:33:16;;;;;;;3.00;1.10;;;;;;;;;;5429165;26;20009;-69
2024/04/10 07:35:42;;;;;;;8.30;3.25;;;;;;;;;;5447286;26;20025;-70
2024/04/10 07:38:08;;;;;;;9.90;1.23;;;;;;;;;;5434591;26;20007;-70
2024/04/10 07:40:33;;;;;;;2.03;0.73;;;;;;;;;;5421209;26;20013;-73
2024/04/10 07:42:59;;;;;;;2.35;1.00;;;;;;;;;;5476335;26;20014;-71
2024/04/10 07:45:28;;;;;;;1.98;0.90;;;;;;;;;;5436025;26;19998;-72
2024/04/10 07:47:54;;;;;;;6.22;1.90;;;;;;;;;;5432276;26;19999;-70
2024/04/10 07:50:19;;;;;;;3.58;1.20;;;;;;;;;;5433642;26;20010;-71
2024/04/10 07:54:40;;;;;;;1.25;0.88;;;;;;;;;;5475131;25;20356;-71
2024/04/10 07:57:05;;;;;;;2.17;1.20;;;;;;;;;;5416856;26;20456;-68
2024/04/10 07:59:32;;;;;;;14.10;1.77;;;;;;;;;;5421222;26;20011;-70
2024/04/10 08:01:57;;;;;;;7.82;0.80;;;;;;;;;;5420788;26;20010;-70
2024/04/10 08:04:24;;;;;;;5.13;2.22;;;;;;;;;;5423016;26;19999;-69
2024/04/10 08:06:50;;;;;;;4.38;0.90;;;;;;;;;;5423877;26;20026;-69
2024/04/10 08:09:15;;;;;;;5.75;0.95;;;;;;;;;;5423227;26;19995;-73
2024/04/10 08:11:42;;;;;;;12.07;1.80;;;;;;;;;;5423439;26;20114;-69
2024/04/10 08:14:08;;;;;;;4.35;1.20;;;;;;;;;;5420087;26;20007;-70
2024/04/10 08:16:33;;;;;;;13.80;1.38;;;;;;;;;;5424443;26;20533;-71
2024/04/10 08:19:00;;;;;;;2.92;1.10;;;;;;;;;;5422132;26;20503;-70
2024/04/10 08:21:25;;;;;;;11.40;4.43;;;;;;;;;;5408153;26;20076;-70
2024/04/10 08:23:51;;;;;;;10.80;1.98;;;;;;;;;;5416953;26;20088;-70
2024/04/10 08:26:20;;;;;;;6.00;1.48;;;;;;;;;;5421091;26;20497;-69
2024/04/10 08:28:50;;;;;;;3.65;1.48;;;;;;;;;;5426608;26;20003;-69
2024/04/10 08:31:21;;;;;;;2.58;1.02;;;;;;;;;;5415822;26;20000;-73
2024/04/10 08:33:47;;;;;;;4.63;1.20;;;;;;;;;;5422416;26;20486;-68
2024/04/10 08:36:16;;;;;;;7.20;1.25;;;;;;;;;;5427627;26;20011;-69
2024/04/10 08:38:43;;;;;;;3.83;1.73;;;;;;;;;;5392461;26;20372;-68
2024/04/10 08:41:16;;;;;;;2.72;1.67;;;;;;;;;;5425547;26;20325;-69
2024/04/10 08:43:46;;;;;;;6.05;1.73;;;;;;;;;;5423791;26;20011;-69
2024/04/10 08:46:16;;;;;;;2.80;1.73;;;;;;;;;;5420547;26;20014;-70
2024/04/10 08:48:43;;;;;;;4.95;1.77;;;;;;;;;;5419699;26;20018;-71
2024/04/10 08:51:14;;;;;;;3.20;1.63;;;;;;;;;;5382942;26;20070;-69
2024/04/10 08:53:41;;;;;;;1.85;1.70;;;;;;;;;;5371903;26;20015;-69
2024/04/10 08:56:17;;;;;;;2.03;1.83;;;;;;;;;;5377865;26;20073;-68
2024/04/10 08:58:43;;;;;;;5.93;2.13;;;;;;;;;;5352719;26;20023;-70
2024/04/10 09:01:09;;;;;;;2.00;1.80;;;;;;;;;;5380447;26;20014;-68
2024/04/10 09:03:36;;;;;;;4.63;2.08;;;;;;;;;;5379146;26;20000;-68
2024/04/10 09:06:08;;;;;;;6.55;2.00;;;;;;;;;;5367703;26;20048;-69
2024/04/10 09:08:38;;;;;;;2.88;2.42;;;;;;;;;;5368154;26;20015;-70
2024/04/10 09:11:04;;;;;;;4.78;2.35;;;;;;;;;;5367323;26;20039;-68
2024/04/10 09:13:29;;;;;;;6.25;1.77;;;;;;;;;;5367701;26;20092;-70
2024/04/10 09:15:59;;;;;;;5.70;2.20;;;;;;;;;;5365070;26;20012;-69
2024/04/10 09:18:26;;;;;;;3.08;2.17;;;;;;;;;;5369351;26;20316;-70
2024/04/10 09:21:03;;;;;;;7.70;2.00;;;;;;;;;;5368176;26;20675;-68
2024/04/10 09:23:31;;;;;;;5.10;2.60;;;;;;;;;;5366526;26;20064;-69
2024/04/10 09:25:56;;;;;;;6.82;2.20;;;;;;;;;;5364933;26;20330;-67
2024/04/10 09:28:22;;;;;;;6.00;2.67;;;;;;;;;;5373575;26;20289;-70
2024/04/10 09:30:56;;;;;;;6.60;2.67;;;;;;;;;;5340672;26;20016;-67
2024/04/10 09:33:24;;;;;;;3.92;1.98;;;;;;;;;;5359710;26;20351;-68
2024/04/10 09:35:52;;;;;;;5.65;2.55;;;;;;;;;;5339056;26;20032;-68
2024/04/10 09:38:18;;;;;;;5.88;2.70;;;;;;;;;;5367025;26;20530;-69
2024/04/10 09:40:49;;;;;;;4.72;2.40;;;;;;;;;;5366214;26;20004;-69
2024/04/10 09:43:17;;;;;;;4.22;2.38;;;;;;;;;;5371927;26;20077;-68
2024/04/10 09:45:47;;;;;;;3.22;2.38;;;;;;;;;;5373594;26;20357;-68
2024/04/10 09:48:13;;;;;;;4.63;2.30;;;;;;;;;;5357494;26;20015;-69
2024/04/10 09:50:42;;;;;;;4.03;2.25;;;;;;;;;;5361886;26;21179;-69
2024/04/10 09:53:08;;;;;;;4.72;2.55;;;;;;;;;;5371686;26;20019;-69
2024/04/10 09:55:38;;;;;;;4.72;2.15;;;;;;;;;;5362182;26;20329;-68
2024/04/10 09:58:10;;;;;;;6.97;2.47;;;;;;;;;;5368866;26;20008;-67
2024/04/10 10:00:37;;;;;;;4.30;2.47;;;;;;;;;;5369203;26;20008;-71
2024/04/10 10:03:06;;;;;;;3.75;2.05;;;;;;;;;;5364445;26;20166;-72
2024/04/10 10:05:33;;;;;;;3.92;1.88;;;;;;;;;;5367811;26;20004;-69
2024/04/10 10:08:11;;;;;;;30.35;6.55;;;;;;;;;;5363352;26;20364;-69
2024/04/10 10:10:52;;;;;;;6.15;1.80;;;;;;;;;;5363777;26;20008;-69
2024/04/10 10:13:27;;;;;;;1.80;1.70;;;;;;;;;;5366733;26;20063;-69
2024/04/10 10:16:04;;;;;;;2.47;1.67;;;;;;;;;;5368243;26;20045;-68
2024/04/10 10:18:31;;;;;;;11.38;3.47;;;;;;;;;;5363265;26;20000;-69
2024/04/10 10:21:05;;;;;;;4.13;2.53;;;;;;;;;;5367794;26;20016;-68
2024/04/10 10:23:32;;;;;;;6.85;2.38;;;;;;;;;;5372374;26;20012;-67
2024/04/10 10:25:58;;;;;;;3.00;2.15;;;;;;;;;;5376247;26;20479;-68
2024/04/10 10:28:24;;;;;;;3.47;2.05;;;;;;;;;;5370716;26;20000;-69
2024/04/10 10:30:49;;;;;;;3.80;1.88;;;;;;;;;;5357574;26;20024;-69
2024/04/10 10:33:19;;;;;;;4.88;2.05;;;;;;;;;;5376379;26;20442;-69
2024/04/10 10:35:45;;;;;;;6.70;2.40;;;;;;;;;;5370181;26;20001;-69
2024/04/10 10:38:11;;;;;;;4.65;2.08;;;;;;;;;;5370223;26;20009;-67
2024/04/10 10:40:37;;;;;;;5.88;2.08;;;;;;;;;;5367603;26;20312;-68
2024/04/10 10:43:07;;;;;;;3.10;1.90;;;;;;;;;;5334274;26;20039;-71
2024/04/10 10:45:34;;;;;;;2.28;1.90;;;;;;;;;;5370751;26;20019;-67
2024/04/10 10:48:02;;;;;;;2.35;1.85;;;;;;;;;;5370329;26;20011;-68
2024/04/10 10:50:29;;;;;;;5.63;2.05;;;;;;;;;;5371806;26;20015;-69
2024/04/10 10:52:56;;;;;;;5.28;2.20;;;;;;;;;;5365507;26;20016;-70
2024/04/10 10:55:23;;;;;;;7.65;2.25;;;;;;;;;;5370378;26;20010;-70
2024/04/10 10:58:00;;;;;;;3.28;2.13;;;;;;;;;;5366858;26;20011;-69
2024/04/10 11:00:30;;;;;;;10.23;3.33;;;;;;;;;;5363720;26;20040;-69
2024/04/10 11:03:12;;;;;;;12.93;3.95;;;;;;;;;;5370438;26;20019;-69
2024/04/10 11:05:38;;;;;;;4.07;2.13;;;;;;;;;;5352638;26;20003;-68
2024/04/10 11:08:05;;;;;;;9.45;4.15;;;;;;;;;;5365035;26;20550;-70
2024/04/10 11:10:31;;;;;;;6.28;3.13;;;;;;;;;;5361671;26;20313;-70
2024/04/10 11:13:05;;;;;;;4.57;2.63;;;;;;;;;;5364895;26;20004;-69
2024/04/10 11:15:51;;;;;;;5.07;2.40;;;;;;;;;;5364983;26;20000;-69
2024/04/10 11:18:18;;;;;;;21.33;6.30;;;;;;;;;;5358690;26;20496;-71
2024/04/10 11:20:45;;;;;;;7.10;3.30;;;;;;;;;;5358455;26;20020;-68
2024/04/10 11:23:11;;;;;;;10.63;3.53;;;;;;;;;;5367753;26;20529;-69
2024/04/10 11:25:37;;;;;;;9.18;3.03;;;;;;;;;;5367664;26;20012;-69
2024/04/10 11:28:03;;;;;;;6.72;2.65;;;;;;;;;;5370105;26;20000;-68
2024/04/10 11:30:30;;;;;;;4.20;3.08;;;;;;;;;;5362634;26;20072;-69
2024/04/10 11:32:57;;;;;;;9.27;2.85;;;;;;;;;;5370642;26;20359;-69
2024/04/10 11:35:24;;;;;;;5.82;3.17;;;;;;;;;;5319224;26;20019;-68
2024/04/10 11:37:51;;;;;;;3.42;2.50;;;;;;;;;;5338753;26;20008;-68
2024/04/10 11:40:16;;;;;;;2.47;2.08;;;;;;;;;;5367345;26;20105;-70
2024/04/10 11:42:43;;;;;;;3.95;2.67;;;;;;;;;;5361137;26;19997;-67
2024/04/10 11:45:09;;;;;;;2.55;1.98;;;;;;;;;;5367829;26;20003;-68
2024/04/10 11:47:38;;;;;;;4.90;2.30;;;;;;;;;;5370318;26;20004;-68
2024/04/10 11:50:05;;;;;;;9.32;2.70;;;;;;;;;;5369327;26;20004;-70
2024/04/10 11:52:31;;;;;;;4.20;2.20;;;;;;;;;;5360033;26;20085;-68
2024/04/10 11:54:59;;;;;;;4.15;2.50;;;;;;;;;;5362994;26;20036;-70
2024/04/10 11:57:25;;;;;;;5.03;1.60;;;;;;;;;;5369483;26;20011;-68
2024/04/10 11:59:51;;;;;;;2.90;2.10;;;;;;;;;;5362671;26;20008;-69
2024/04/10 12:02:17;;;;;;;4.15;1.77;;;;;;;;;;5363237;26;21057;-71
2024/04/10 12:04:43;;;;;;;5.50;2.60;;;;;;;;;;5366581;26;20011;-68
2024/04/10 12:07:09;;;;;;;3.80;2.17;;;;;;;;;;5361651;26;19992;-70
2024/04/10 12:09:39;;;;;;;4.55;2.38;;;;;;;;;;5359000;26;20406;-69
2024/04/10 12:12:06;;;;;;;5.22;1.80;;;;;;;;;;5367018;26;20032;-71
2024/04/10 12:14:32;;;;;;;2.97;1.85;;;;;;;;;;5368216;26;20130;-68
2024/04/10 12:16:58;;;;;;;3.20;2.35;;;;;;;;;;5361979;26;20008;-69
2024/04/10 12:19:26;;;;;;;7.32;4.05;;;;;;;;;;5358128;26;20358;-71
2024/04/10 12:21:52;;;;;;;10.05;2.88;;;;;;;;;;5367489;26;20012;-71
2024/04/10 12:24:17;;;;;;;3.80;2.85;;;;;;;;;;5368413;26;20007;-69
2024/04/10 12:26:43;;;;;;;4.15;2.65;;;;;;;;;;5370317;26;20000;-69
2024/04/10 12:29:08;;;;;;;7.63;2.60;;;;;;;;;;5356481;26;19997;-68
2024/04/10 12:31:34;;;;;;;4.03;2.70;;;;;;;;;;5366872;26;20011;-71
2024/04/10 12:34:00;;;;;;;4.07;2.60;;;;;;;;;;5367657;26;20594;-68
2024/04/10 12:39:11;;;;;;;6.28;2.25;;;;;;;;;;5371017;26;20082;-68
2024/04/10 12:41:36;;;;;;;2.90;2.60;;;;;;;;;;5372342;26;20823;-69
2024/04/10 12:44:02;;;;;;;4.45;2.45;;;;;;;;;;5369313;26;20046;-70
2024/04/10 12:46:30;;;;;;;3.28;2.47;;;;;;;;;;5372448;26;20019;-70
2024/04/10 12:49:01;;;;;;;8.50;3.15;;;;;;;;;;5372383;26;20018;-68
2024/04/10 12:51:26;;;;;;;3.53;2.33;;;;;;;;;;5370885;26;20499;-72
2024/04/10 12:53:52;;;;;;;4.95;2.72;;;;;;;;;;5365154;26;20004;-70
2024/04/10 12:56:18;;;;;;;8.02;2.63;;;;;;;;;;5377656;26;20011;-68
2024/04/10 12:58:43;;;;;;;8.27;2.78;;;;;;;;;;5378773;26;20008;-70
2024/04/10 13:01:10;;;;;;;6.55;3.28;;;;;;;;;;5377432;26;20000;-69
2024/04/10 13:03:35;;;;;;;6.30;3.42;;;;;;;;;;5379465;26;20000;-69
2024/04/10 13:06:04;;;;;;;8.98;3.15;;;;;;;;;;5377976;26;20431;-69
2024/04/10 13:08:30;;;;;;;6.82;3.10;;;;;;;;;;5365418;26;19997;-70
2024/04/10 13:11:10;;;;;;;6.60;3.00;;;;;;;;;;5376970;26;19997;-69
2024/04/10 13:13:36;;;;;;;7.15;2.85;;;;;;;;;;5377012;26;20420;-68
2024/04/10 13:16:02;;;;;;;6.32;3.17;;;;;;;;;;5374758;26;20011;-69
2024/04/10 13:18:30;;;;;;;3.97;3.10;;;;;;;;;;5370514;26;20000;-68
2024/04/10 13:20:56;;;;;;;5.15;3.00;;;;;;;;;;5334624;26;20019;-68
2024/04/10 13:23:22;;;;;;;5.10;2.75;;;;;;;;;;5361191;26;20792;-70
2024/04/10 13:25:58;;;;;;;6.28;2.67;;;;;;;;;;5326336;26;20016;-72
2024/04/10 13:28:23;;;;;;;3.28;2.80;;;;;;;;;;5375733;26;20037;-70
2024/04/10 13:30:49;;;;;;;4.57;2.80;;;;;;;;;;5376790;26;20000;-69
2024/04/10 13:33:14;;;;;;;8.18;3.53;;;;;;;;;;5354086;26;20556;-70
2024/04/10 13:35:40;;;;;;;5.55;3.00;;;;;;;;;;5367967;26;20019;-68
2024/04/10 13:38:07;;;;;;;8.48;2.95;;;;;;;;;;5374371;26;20011;-69
2024/04/10 13:40:33;;;;;;;8.27;3.58;;;;;;;;;;5373992;26;20110;-72
2024/04/10 13:42:59;;;;;;;9.68;2.85;;;;;;;;;;5375472;26;20102;-70
2024/04/10 13:45:24;;;;;;;8.55;3.40;;;;;;;;;;5361064;26;20013;-70
2024/04/10 13:47:50;;;;;;;7.80;2.92;;;;;;;;;;5368248;26;20472;-70
2024/04/10 13:50:15;;;;;;;6.15;2.67;;;;;;;;;;5371773;26;20025;-70
2024/04/10 13:52:41;;;;;;;11.23;4.20;;;;;;;;;;5364367;26;20009;-71
2024/04/10 13:55:08;;;;;;;5.45;2.50;;;;;;;;;;5339624;26;19997;-71
2024/04/10 13:57:34;;;;;;;5.32;2.67;;;;;;;;;;5340909;26;20844;-71
2024/04/10 13:59:59;;;;;;;9.10;2.28;;;;;;;;;;5368790;26;20012;-70
2024/04/10 14:02:25;;;;;;;4.53;2.88;;;;;;;;;;5341075;26;20015;-70
2024/04/10 14:04:50;;;;;;;3.65;2.40;;;;;;;;;;5340357;26;20383;-70
2024/04/10 14:07:16;;;;;;;6.18;2.58;;;;;;;;;;5340340;26;20016;-70
2024/04/10 14:09:41;;;;;;;14.00;4.85;;;;;;;;;;5338541;26;20088;-69
2024/04/10 14:12:08;;;;;;;13.05;4.47;;;;;;;;;;5338943;26;20013;-71
2024/04/10 14:14:34;;;;;;;3.80;2.38;;;;;;;;;;5338855;26;20017;-69
2024/04/10 14:17:01;;;;;;;4.55;2.00;;;;;;;;;;5341073;26;20106;-69
2024/04/10 14:19:27;;;;;;;7.63;2.50;;;;;;;;;;5310653;26;20466;-70
2024/04/10 14:21:53;;;;;;;6.63;3.17;;;;;;;;;;5310838;26;20005;-70
2024/04/10 14:24:18;;;;;;;17.63;4.95;;;;;;;;;;5341567;26;20005;-72
2024/04/10 14:26:44;;;;;;;4.95;2.13;;;;;;;;;;5338350;26;20135;-70
2024/04/10 14:29:10;;;;;;;7.30;2.58;;;;;;;;;;5339478;26;20005;-69
2024/04/10 14:31:36;;;;;;;10.27;5.22;;;;;;;;;;5341793;26;20353;-71
2024/04/10 14:34:01;;;;;;;5.93;2.75;;;;;;;;;;5368309;26;20037;-69
2024/04/10 14:36:27;;;;;;;4.90;2.22;;;;;;;;;;5340852;26;20004;-71
2024/04/10 14:38:52;;;;;;;6.75;2.63;;;;;;;;;;5341604;26;20309;-68
2024/04/10 14:41:19;;;;;;;4.22;2.30;;;;;;;;;;5340050;26;20005;-70
2024/04/10 14:43:49;;;;;;;8.18;3.28;;;;;;;;;;5339463;26;20015;-70
2024/04/10 14:46:15;;;;;;;4.40;3.45;;;;;;;;;;5339527;26;20099;-69